sensor_id;sensor_type;location;lat;lon;timestamp;P1;durP1;ratioP1;P2;durP2;ratioP2
71655;SDS011;59497;48.798;8.816;2024-03-02T00:01:15;10.40;;;6.73;;
71655;SDS011;59497;48.798;8.816;2024-03-02T00:03:40;8.27;;;4.53;;
71655;SDS011;59497;48.798;8.816;2024-03-02T00:06:07;10.65;;;5.07;;
71655;SDS011;59497;48.798;8.816;2024-03-02T00:08:32;10.23;;;5.23;;
71655;SDS011;59497;48.798;8.816;2024-03-02T00:10:58;8.43;;;4.83;;
71655;SDS011;59497;48.798;8.816;2024-03-02T00:13:24;9.63;;;4.85;;
71655;SDS011;59497;48.798;8.816;2024-03-02T00:15:52;9.97;;;5.20;;
71655;SDS011;59497;48.798;8.816;2024-03-02T00:18:19;8.93;;;5.03;;
71655;SDS011;59497;48.798;8.816;2024-03-02T00:20:45;8.57;;;4.68;;
71655;SDS011;59497;48.798;8.816;2024-03-02T00:23:16;7.90;;;4.83;;
71655;SDS011;59497;48.798;8.816;2024-03-02T00:25:43;9.98;;;4.45;;
71655;SDS011;59497;48.798;8.816;2024-03-02T00:33:33;9.60;;;5.35;;
71655;SDS011;59497;48.798;8.816;2024-03-02T00:35:59;11.20;;;5.60;;
71655;SDS011;59497;48.798;8.816;2024-03-02T00:38:25;9.98;;;5.13;;
71655;SDS011;59497;48.798;8.816;2024-03-02T00:40:50;8.73;;;5.20;;
71655;SDS011;59497;48.798;8.816;2024-03-02T00:45:59;10.35;;;5.43;;
71655;SDS011;59497;48.798;8.816;2024-03-02T00:48:25;10.43;;;5.50;;
71655;SDS011;59497;48.798;8.816;2024-03-02T00:50:52;11.33;;;6.10;;
71655;SDS011;59497;48.798;8.816;2024-03-02T00:53:17;10.77;;;6.57;;
71655;SDS011;59497;48.798;8.816;2024-03-02T00:55:43;11.05;;;6.25;;
71655;SDS011;59497;48.798;8.816;2024-03-02T00:58:12;10.80;;;5.95;;
71655;SDS011;59497;48.798;8.816;2024-03-02T01:00:37;12.03;;;6.93;;
71655;SDS011;59497;48.798;8.816;2024-03-02T01:03:02;10.93;;;5.90;;
71655;SDS011;59497;48.798;8.816;2024-03-02T01:05:29;11.38;;;6.30;;
71655;SDS011;59497;48.798;8.816;2024-03-02T01:07:54;9.97;;;5.73;;
71655;SDS011;59497;48.798;8.816;2024-03-02T01:10:19;11.77;;;6.10;;
71655;SDS011;59497;48.798;8.816;2024-03-02T01:12:45;13.20;;;6.53;;
71655;SDS011;59497;48.798;8.816;2024-03-02T01:15:10;11.20;;;5.93;;
71655;SDS011;59497;48.798;8.816;2024-03-02T01:17:36;12.25;;;6.30;;
71655;SDS011;59497;48.798;8.816;2024-03-02T01:20:01;12.70;;;6.23;;
71655;SDS011;59497;48.798;8.816;2024-03-02T01:22:26;11.90;;;6.63;;
71655;SDS011;59497;48.798;8.816;2024-03-02T01:24:52;11.67;;;6.20;;
71655;SDS011;59497;48.798;8.816;2024-03-02T01:27:17;12.23;;;6.17;;
71655;SDS011;59497;48.798;8.816;2024-03-02T01:29:42;11.40;;;6.07;;
71655;SDS011;59497;48.798;8.816;2024-03-02T01:32:07;10.53;;;5.83;;
71655;SDS011;59497;48.798;8.816;2024-03-02T01:34:32;13.23;;;6.00;;
71655;SDS011;59497;48.798;8.816;2024-03-02T01:36:58;12.60;;;5.50;;
71655;SDS011;59497;48.798;8.816;2024-03-02T01:39:23;11.47;;;5.70;;
71655;SDS011;59497;48.798;8.816;2024-03-02T01:41:48;12.70;;;6.03;;
71655;SDS011;59497;48.798;8.816;2024-03-02T01:44:13;11.47;;;5.67;;
71655;SDS011;59497;48.798;8.816;2024-03-02T01:46:39;12.40;;;6.13;;
71655;SDS011;59497;48.798;8.816;2024-03-02T01:49:04;12.43;;;5.95;;
71655;SDS011;59497;48.798;8.816;2024-03-02T01:51:31;11.80;;;6.88;;
71655;SDS011;59497;48.798;8.816;2024-03-02T01:53:56;13.17;;;6.20;;
71655;SDS011;59497;48.798;8.816;2024-03-02T01:56:21;11.23;;;5.73;;
71655;SDS011;59497;48.798;8.816;2024-03-02T01:58:47;12.20;;;6.27;;
71655;SDS011;59497;48.798;8.816;2024-03-02T02:01:12;11.97;;;5.90;;
71655;SDS011;59497;48.798;8.816;2024-03-02T02:03:37;14.37;;;6.93;;
71655;SDS011;59497;48.798;8.816;2024-03-02T02:06:02;14.27;;;6.53;;
71655;SDS011;59497;48.798;8.816;2024-03-02T02:08:28;12.80;;;6.33;;
71655;SDS011;59497;48.798;8.816;2024-03-02T02:10:53;13.20;;;6.20;;
71655;SDS011;59497;48.798;8.816;2024-03-02T02:13:18;13.37;;;6.47;;
71655;SDS011;59497;48.798;8.816;2024-03-02T02:15:43;11.93;;;5.90;;
71655;SDS011;59497;48.798;8.816;2024-03-02T02:18:08;14.57;;;7.30;;
71655;SDS011;59497;48.798;8.816;2024-03-02T02:20:34;12.80;;;6.80;;
71655;SDS011;59497;48.798;8.816;2024-03-02T02:22:59;12.07;;;6.47;;
71655;SDS011;59497;48.798;8.816;2024-03-02T02:25:25;12.63;;;6.38;;
71655;SDS011;59497;48.798;8.816;2024-03-02T02:27:50;12.27;;;6.47;;
71655;SDS011;59497;48.798;8.816;2024-03-02T02:30:23;12.47;;;6.30;;
71655;SDS011;59497;48.798;8.816;2024-03-02T02:32:48;11.82;;;6.13;;
71655;SDS011;59497;48.798;8.816;2024-03-02T02:35:14;13.37;;;6.87;;
71655;SDS011;59497;48.798;8.816;2024-03-02T02:37:39;12.80;;;6.27;;
71655;SDS011;59497;48.798;8.816;2024-03-02T02:40:04;14.65;;;6.57;;
71655;SDS011;59497;48.798;8.816;2024-03-02T02:42:30;11.23;;;5.70;;
71655;SDS011;59497;48.798;8.816;2024-03-02T02:44:55;14.33;;;6.50;;
71655;SDS011;59497;48.798;8.816;2024-03-02T02:47:20;13.93;;;6.63;;
71655;SDS011;59497;48.798;8.816;2024-03-02T02:49:45;13.83;;;6.50;;
71655;SDS011;59497;48.798;8.816;2024-03-02T02:52:11;14.20;;;6.67;;
71655;SDS011;59497;48.798;8.816;2024-03-02T02:54:37;17.17;;;7.53;;
71655;SDS011;59497;48.798;8.816;2024-03-02T02:57:02;15.40;;;6.68;;
71655;SDS011;59497;48.798;8.816;2024-03-02T02:59:28;12.20;;;6.10;;
71655;SDS011;59497;48.798;8.816;2024-03-02T03:01:53;15.13;;;6.60;;
71655;SDS011;59497;48.798;8.816;2024-03-02T03:04:19;15.30;;;7.00;;
71655;SDS011;59497;48.798;8.816;2024-03-02T03:06:44;15.47;;;7.33;;
71655;SDS011;59497;48.798;8.816;2024-03-02T03:09:09;11.90;;;6.70;;
71655;SDS011;59497;48.798;8.816;2024-03-02T03:11:36;14.25;;;7.20;;
71655;SDS011;59497;48.798;8.816;2024-03-02T03:14:01;15.70;;;6.87;;
71655;SDS011;59497;48.798;8.816;2024-03-02T03:16:26;15.03;;;7.00;;
71655;SDS011;59497;48.798;8.816;2024-03-02T03:18:51;14.97;;;6.90;;
71655;SDS011;59497;48.798;8.816;2024-03-02T03:21:18;15.80;;;7.60;;
71655;SDS011;59497;48.798;8.816;2024-03-02T03:23:43;14.67;;;7.20;;
71655;SDS011;59497;48.798;8.816;2024-03-02T03:26:08;14.23;;;7.40;;
71655;SDS011;59497;48.798;8.816;2024-03-02T03:28:34;14.90;;;6.90;;
71655;SDS011;59497;48.798;8.816;2024-03-02T03:30:59;12.77;;;6.73;;
71655;SDS011;59497;48.798;8.816;2024-03-02T03:33:24;16.03;;;7.00;;
71655;SDS011;59497;48.798;8.816;2024-03-02T03:35:49;15.40;;;6.97;;
71655;SDS011;59497;48.798;8.816;2024-03-02T03:38:15;13.50;;;6.50;;
71655;SDS011;59497;48.798;8.816;2024-03-02T03:40:40;13.17;;;7.00;;
71655;SDS011;59497;48.798;8.816;2024-03-02T03:43:05;14.53;;;7.03;;
71655;SDS011;59497;48.798;8.816;2024-03-02T03:45:30;15.73;;;7.70;;
71655;SDS011;59497;48.798;8.816;2024-03-02T03:47:55;15.33;;;7.13;;
71655;SDS011;59497;48.798;8.816;2024-03-02T03:50:21;15.47;;;8.13;;
71655;SDS011;59497;48.798;8.816;2024-03-02T03:52:46;14.67;;;7.07;;
71655;SDS011;59497;48.798;8.816;2024-03-02T03:55:11;15.97;;;7.40;;
71655;SDS011;59497;48.798;8.816;2024-03-02T03:57:36;15.40;;;7.53;;
71655;SDS011;59497;48.798;8.816;2024-03-02T04:00:02;15.03;;;6.90;;
71655;SDS011;59497;48.798;8.816;2024-03-02T04:02:27;14.90;;;6.90;;
71655;SDS011;59497;48.798;8.816;2024-03-02T04:04:53;17.37;;;7.20;;
71655;SDS011;59497;48.798;8.816;2024-03-02T04:07:18;14.40;;;6.67;;
71655;SDS011;59497;48.798;8.816;2024-03-02T04:09:43;16.67;;;7.23;;
71655;SDS011;59497;48.798;8.816;2024-03-02T04:12:08;16.40;;;8.07;;
71655;SDS011;59497;48.798;8.816;2024-03-02T04:14:34;17.27;;;7.70;;
71655;SDS011;59497;48.798;8.816;2024-03-02T04:16:59;14.33;;;6.67;;
71655;SDS011;59497;48.798;8.816;2024-03-02T04:19:24;15.67;;;6.73;;
71655;SDS011;59497;48.798;8.816;2024-03-02T04:21:49;15.17;;;7.20;;
71655;SDS011;59497;48.798;8.816;2024-03-02T04:24:14;14.33;;;6.73;;
71655;SDS011;59497;48.798;8.816;2024-03-02T04:26:40;15.37;;;7.80;;
71655;SDS011;59497;48.798;8.816;2024-03-02T04:29:05;15.80;;;7.67;;
71655;SDS011;59497;48.798;8.816;2024-03-02T04:31:30;17.70;;;7.47;;
71655;SDS011;59497;48.798;8.816;2024-03-02T04:33:55;18.60;;;8.10;;
71655;SDS011;59497;48.798;8.816;2024-03-02T04:36:20;16.37;;;8.17;;
71655;SDS011;59497;48.798;8.816;2024-03-02T04:38:46;15.35;;;7.13;;
71655;SDS011;59497;48.798;8.816;2024-03-02T04:41:11;15.73;;;7.00;;
71655;SDS011;59497;48.798;8.816;2024-03-02T04:43:37;18.33;;;8.33;;
71655;SDS011;59497;48.798;8.816;2024-03-02T04:46:02;18.47;;;8.03;;
71655;SDS011;59497;48.798;8.816;2024-03-02T04:48:27;18.20;;;8.30;;
71655;SDS011;59497;48.798;8.816;2024-03-02T04:50:52;15.67;;;7.33;;
71655;SDS011;59497;48.798;8.816;2024-03-02T04:53:18;16.47;;;8.07;;
71655;SDS011;59497;48.798;8.816;2024-03-02T04:55:43;14.07;;;7.53;;
71655;SDS011;59497;48.798;8.816;2024-03-02T04:58:08;14.00;;;7.57;;
71655;SDS011;59497;48.798;8.816;2024-03-02T05:00:33;17.93;;;8.07;;
71655;SDS011;59497;48.798;8.816;2024-03-02T05:02:59;17.30;;;8.70;;
71655;SDS011;59497;48.798;8.816;2024-03-02T05:05:24;16.83;;;7.60;;
71655;SDS011;59497;48.798;8.816;2024-03-02T05:07:49;17.13;;;7.13;;
71655;SDS011;59497;48.798;8.816;2024-03-02T05:10:14;16.57;;;7.20;;
71655;SDS011;59497;48.798;8.816;2024-03-02T05:12:40;17.30;;;7.77;;
71655;SDS011;59497;48.798;8.816;2024-03-02T05:15:12;22.92;;;8.13;;
71655;SDS011;59497;48.798;8.816;2024-03-02T05:17:37;17.25;;;7.95;;
71655;SDS011;59497;48.798;8.816;2024-03-02T05:20:04;16.43;;;7.10;;
71655;SDS011;59497;48.798;8.816;2024-03-02T05:22:29;17.57;;;8.07;;
71655;SDS011;59497;48.798;8.816;2024-03-02T05:24:54;16.93;;;7.00;;
71655;SDS011;59497;48.798;8.816;2024-03-02T05:27:20;16.40;;;6.63;;
71655;SDS011;59497;48.798;8.816;2024-03-02T05:29:45;18.33;;;8.00;;
71655;SDS011;59497;48.798;8.816;2024-03-02T05:32:11;18.67;;;8.23;;
71655;SDS011;59497;48.798;8.816;2024-03-02T05:34:36;16.73;;;7.60;;
71655;SDS011;59497;48.798;8.816;2024-03-02T05:37:01;18.70;;;7.90;;
71655;SDS011;59497;48.798;8.816;2024-03-02T05:39:26;15.23;;;6.73;;
71655;SDS011;59497;48.798;8.816;2024-03-02T05:41:51;18.13;;;8.47;;
71655;SDS011;59497;48.798;8.816;2024-03-02T05:44:17;14.60;;;6.60;;
71655;SDS011;59497;48.798;8.816;2024-03-02T05:46:43;17.98;;;7.22;;
71655;SDS011;59497;48.798;8.816;2024-03-02T05:49:08;14.13;;;6.07;;
71655;SDS011;59497;48.798;8.816;2024-03-02T05:51:34;13.15;;;5.65;;
71655;SDS011;59497;48.798;8.816;2024-03-02T05:54:00;16.57;;;6.90;;
71655;SDS011;59497;48.798;8.816;2024-03-02T05:56:25;14.30;;;6.43;;
71655;SDS011;59497;48.798;8.816;2024-03-02T05:58:50;17.33;;;7.40;;
71655;SDS011;59497;48.798;8.816;2024-03-02T06:01:18;17.13;;;6.80;;
71655;SDS011;59497;48.798;8.816;2024-03-02T06:03:43;14.20;;;6.47;;
71655;SDS011;59497;48.798;8.816;2024-03-02T06:06:09;14.40;;;6.23;;
71655;SDS011;59497;48.798;8.816;2024-03-02T06:08:34;15.57;;;6.83;;
71655;SDS011;59497;48.798;8.816;2024-03-02T06:11:00;15.18;;;6.38;;
71655;SDS011;59497;48.798;8.816;2024-03-02T06:13:25;14.83;;;6.77;;
71655;SDS011;59497;48.798;8.816;2024-03-02T06:15:51;13.70;;;6.50;;
71655;SDS011;59497;48.798;8.816;2024-03-02T06:18:16;15.37;;;7.03;;
71655;SDS011;59497;48.798;8.816;2024-03-02T06:20:42;12.70;;;5.70;;
71655;SDS011;59497;48.798;8.816;2024-03-02T06:23:07;16.53;;;6.33;;
71655;SDS011;59497;48.798;8.816;2024-03-02T06:25:32;15.13;;;6.63;;
71655;SDS011;59497;48.798;8.816;2024-03-02T06:27:58;13.70;;;6.85;;
71655;SDS011;59497;48.798;8.816;2024-03-02T06:30:23;14.10;;;6.37;;
71655;SDS011;59497;48.798;8.816;2024-03-02T06:32:49;13.70;;;6.17;;
71655;SDS011;59497;48.798;8.816;2024-03-02T06:35:14;16.27;;;6.80;;
71655;SDS011;59497;48.798;8.816;2024-03-02T06:37:39;13.60;;;6.07;;
71655;SDS011;59497;48.798;8.816;2024-03-02T06:40:05;15.23;;;6.60;;
71655;SDS011;59497;48.798;8.816;2024-03-02T06:42:32;12.32;;;5.95;;
71655;SDS011;59497;48.798;8.816;2024-03-02T06:44:58;14.65;;;6.25;;
71655;SDS011;59497;48.798;8.816;2024-03-02T06:47:23;12.50;;;5.73;;
71655;SDS011;59497;48.798;8.816;2024-03-02T06:49:49;10.03;;;5.53;;
71655;SDS011;59497;48.798;8.816;2024-03-02T06:52:14;13.93;;;6.70;;
71655;SDS011;59497;48.798;8.816;2024-03-02T06:54:39;15.57;;;6.67;;
71655;SDS011;59497;48.798;8.816;2024-03-02T06:57:04;13.83;;;6.67;;
71655;SDS011;59497;48.798;8.816;2024-03-02T06:59:29;14.57;;;6.83;;
71655;SDS011;59497;48.798;8.816;2024-03-02T07:01:55;12.60;;;6.10;;
71655;SDS011;59497;48.798;8.816;2024-03-02T07:04:20;14.23;;;6.60;;
71655;SDS011;59497;48.798;8.816;2024-03-02T07:06:45;13.93;;;6.53;;
71655;SDS011;59497;48.798;8.816;2024-03-02T07:09:10;15.40;;;6.90;;
71655;SDS011;59497;48.798;8.816;2024-03-02T07:11:36;13.63;;;6.80;;
71655;SDS011;59497;48.798;8.816;2024-03-02T07:14:01;12.40;;;6.43;;
71655;SDS011;59497;48.798;8.816;2024-03-02T07:16:26;13.60;;;6.57;;
71655;SDS011;59497;48.798;8.816;2024-03-02T07:18:57;14.83;;;6.93;;
71655;SDS011;59497;48.798;8.816;2024-03-02T07:21:23;14.15;;;6.90;;
71655;SDS011;59497;48.798;8.816;2024-03-02T07:23:49;13.67;;;6.30;;
71655;SDS011;59497;48.798;8.816;2024-03-02T07:26:14;12.88;;;6.05;;
71655;SDS011;59497;48.798;8.816;2024-03-02T07:28:40;13.43;;;7.33;;
71655;SDS011;59497;48.798;8.816;2024-03-02T07:31:06;14.40;;;7.20;;
71655;SDS011;59497;48.798;8.816;2024-03-02T07:33:31;15.30;;;7.83;;
71655;SDS011;59497;48.798;8.816;2024-03-02T07:35:57;12.47;;;6.73;;
71655;SDS011;59497;48.798;8.816;2024-03-02T07:38:22;13.18;;;6.88;;
71655;SDS011;59497;48.798;8.816;2024-03-02T07:40:48;16.70;;;7.73;;
71655;SDS011;59497;48.798;8.816;2024-03-02T07:43:17;14.00;;;7.30;;
71655;SDS011;59497;48.798;8.816;2024-03-02T07:45:42;12.60;;;6.07;;
71655;SDS011;59497;48.798;8.816;2024-03-02T07:48:07;16.77;;;6.93;;
71655;SDS011;59497;48.798;8.816;2024-03-02T07:50:32;16.87;;;7.70;;
71655;SDS011;59497;48.798;8.816;2024-03-02T07:53:00;13.77;;;7.38;;
71655;SDS011;59497;48.798;8.816;2024-03-02T07:55:25;14.53;;;6.83;;
71655;SDS011;59497;48.798;8.816;2024-03-02T07:57:50;15.30;;;6.83;;
71655;SDS011;59497;48.798;8.816;2024-03-02T08:00:15;15.60;;;7.37;;
71655;SDS011;59497;48.798;8.816;2024-03-02T08:02:41;14.27;;;7.13;;
71655;SDS011;59497;48.798;8.816;2024-03-02T08:05:07;15.15;;;7.43;;
71655;SDS011;59497;48.798;8.816;2024-03-02T08:07:32;16.47;;;7.77;;
71655;SDS011;59497;48.798;8.816;2024-03-02T08:09:58;15.60;;;7.03;;
71655;SDS011;59497;48.798;8.816;2024-03-02T08:12:23;12.50;;;6.60;;
71655;SDS011;59497;48.798;8.816;2024-03-02T08:14:48;14.43;;;6.83;;
71655;SDS011;59497;48.798;8.816;2024-03-02T08:17:13;12.97;;;6.67;;
71655;SDS011;59497;48.798;8.816;2024-03-02T08:19:39;12.73;;;6.57;;
71655;SDS011;59497;48.798;8.816;2024-03-02T08:22:04;13.93;;;7.13;;
71655;SDS011;59497;48.798;8.816;2024-03-02T08:24:29;17.00;;;7.63;;
71655;SDS011;59497;48.798;8.816;2024-03-02T08:26:54;14.50;;;7.23;;
71655;SDS011;59497;48.798;8.816;2024-03-02T08:29:20;14.80;;;8.10;;
71655;SDS011;59497;48.798;8.816;2024-03-02T08:31:45;14.07;;;7.43;;
71655;SDS011;59497;48.798;8.816;2024-03-02T08:34:10;15.33;;;7.33;;
71655;SDS011;59497;48.798;8.816;2024-03-02T08:36:35;15.70;;;7.37;;
71655;SDS011;59497;48.798;8.816;2024-03-02T08:39:01;22.70;;;8.70;;
71655;SDS011;59497;48.798;8.816;2024-03-02T08:41:27;17.48;;;7.47;;
71655;SDS011;59497;48.798;8.816;2024-03-02T08:43:52;14.77;;;7.57;;
71655;SDS011;59497;48.798;8.816;2024-03-02T08:46:17;13.30;;;6.53;;
71655;SDS011;59497;48.798;8.816;2024-03-02T08:48:42;14.07;;;7.30;;
71655;SDS011;59497;48.798;8.816;2024-03-02T08:51:07;16.53;;;7.33;;
71655;SDS011;59497;48.798;8.816;2024-03-02T08:53:35;11.50;;;5.47;;
71655;SDS011;59497;48.798;8.816;2024-03-02T08:56:00;14.40;;;7.37;;
71655;SDS011;59497;48.798;8.816;2024-03-02T08:58:25;15.40;;;7.03;;
71655;SDS011;59497;48.798;8.816;2024-03-02T09:00:50;12.43;;;6.10;;
71655;SDS011;59497;48.798;8.816;2024-03-02T09:03:16;14.40;;;6.37;;
71655;SDS011;59497;48.798;8.816;2024-03-02T09:05:41;13.13;;;7.27;;
71655;SDS011;59497;48.798;8.816;2024-03-02T09:08:07;10.20;;;5.20;;
71655;SDS011;59497;48.798;8.816;2024-03-02T09:10:33;12.15;;;6.32;;
71655;SDS011;59497;48.798;8.816;2024-03-02T09:12:58;11.13;;;5.80;;
71655;SDS011;59497;48.798;8.816;2024-03-02T09:15:23;13.07;;;6.10;;
71655;SDS011;59497;48.798;8.816;2024-03-02T09:17:50;12.40;;;6.85;;
71655;SDS011;59497;48.798;8.816;2024-03-02T09:20:15;11.10;;;5.97;;
71655;SDS011;59497;48.798;8.816;2024-03-02T09:22:41;10.63;;;5.30;;
71655;SDS011;59497;48.798;8.816;2024-03-02T09:25:07;10.75;;;5.80;;
71655;SDS011;59497;48.798;8.816;2024-03-02T09:27:35;9.10;;;5.73;;
71655;SDS011;59497;48.798;8.816;2024-03-02T09:30:00;9.07;;;5.18;;
71655;SDS011;59497;48.798;8.816;2024-03-02T09:32:26;9.73;;;5.37;;
71655;SDS011;59497;48.798;8.816;2024-03-02T09:34:51;9.70;;;5.53;;
71655;SDS011;59497;48.798;8.816;2024-03-02T09:37:17;9.25;;;5.35;;
71655;SDS011;59497;48.798;8.816;2024-03-02T09:39:43;8.43;;;4.90;;
71655;SDS011;59497;48.798;8.816;2024-03-02T09:42:09;8.75;;;5.28;;
71655;SDS011;59497;48.798;8.816;2024-03-02T09:44:34;9.50;;;4.93;;
71655;SDS011;59497;48.798;8.816;2024-03-02T09:46:59;7.13;;;4.33;;
71655;SDS011;59497;48.798;8.816;2024-03-02T09:49:24;7.17;;;4.00;;
71655;SDS011;59497;48.798;8.816;2024-03-02T09:51:50;7.50;;;3.90;;
71655;SDS011;59497;48.798;8.816;2024-03-02T09:54:15;7.77;;;4.93;;
71655;SDS011;59497;48.798;8.816;2024-03-02T09:56:40;10.00;;;4.93;;
71655;SDS011;59497;48.798;8.816;2024-03-02T09:59:06;7.27;;;3.90;;
71655;SDS011;59497;48.798;8.816;2024-03-02T10:01:31;5.30;;;2.80;;
71655;SDS011;59497;48.798;8.816;2024-03-02T10:03:59;6.40;;;3.40;;
71655;SDS011;59497;48.798;8.816;2024-03-02T10:06:25;6.33;;;3.87;;
71655;SDS011;59497;48.798;8.816;2024-03-02T10:08:51;5.93;;;3.17;;
71655;SDS011;59497;48.798;8.816;2024-03-02T10:11:26;4.67;;;3.53;;
71655;SDS011;59497;48.798;8.816;2024-03-02T10:14:08;6.22;;;3.13;;
71655;SDS011;59497;48.798;8.816;2024-03-02T10:16:34;5.03;;;2.92;;
71655;SDS011;59497;48.798;8.816;2024-03-02T10:19:14;4.75;;;2.72;;
71655;SDS011;59497;48.798;8.816;2024-03-02T10:21:40;5.78;;;2.90;;
71655;SDS011;59497;48.798;8.816;2024-03-02T10:24:11;6.13;;;3.70;;
71655;SDS011;59497;48.798;8.816;2024-03-02T10:26:37;8.55;;;5.07;;
71655;SDS011;59497;48.798;8.816;2024-03-02T10:29:02;7.47;;;4.73;;
71655;SDS011;59497;48.798;8.816;2024-03-02T10:31:28;6.53;;;4.03;;
71655;SDS011;59497;48.798;8.816;2024-03-02T10:33:59;8.43;;;4.50;;
71655;SDS011;59497;48.798;8.816;2024-03-02T10:36:25;6.97;;;4.60;;
71655;SDS011;59497;48.798;8.816;2024-03-02T10:38:51;5.15;;;3.72;;
71655;SDS011;59497;48.798;8.816;2024-03-02T10:41:19;6.18;;;3.67;;
71655;SDS011;59497;48.798;8.816;2024-03-02T10:43:48;4.27;;;2.90;;
71655;SDS011;59497;48.798;8.816;2024-03-02T10:46:13;4.15;;;2.75;;
71655;SDS011;59497;48.798;8.816;2024-03-02T10:48:39;11.70;;;3.73;;
71655;SDS011;59497;48.798;8.816;2024-03-02T10:51:05;2.80;;;2.15;;
71655;SDS011;59497;48.798;8.816;2024-03-02T10:53:31;3.90;;;1.87;;
71655;SDS011;59497;48.798;8.816;2024-03-02T10:55:57;3.17;;;2.50;;
71655;SDS011;59497;48.798;8.816;2024-03-02T10:58:27;3.58;;;2.35;;
71655;SDS011;59497;48.798;8.816;2024-03-02T11:00:56;3.60;;;2.53;;
71655;SDS011;59497;48.798;8.816;2024-03-02T11:03:22;3.30;;;2.20;;
71655;SDS011;59497;48.798;8.816;2024-03-02T11:05:47;3.67;;;2.60;;
71655;SDS011;59497;48.798;8.816;2024-03-02T11:08:13;3.35;;;2.22;;
71655;SDS011;59497;48.798;8.816;2024-03-02T11:10:41;3.92;;;2.40;;
71655;SDS011;59497;48.798;8.816;2024-03-02T11:13:09;4.47;;;2.60;;
71655;SDS011;59497;48.798;8.816;2024-03-02T11:15:34;4.15;;;2.20;;
71655;SDS011;59497;48.798;8.816;2024-03-02T11:18:02;2.17;;;1.25;;
71655;SDS011;59497;48.798;8.816;2024-03-02T11:20:30;2.47;;;1.73;;
71655;SDS011;59497;48.798;8.816;2024-03-02T11:22:55;2.00;;;1.50;;
71655;SDS011;59497;48.798;8.816;2024-03-02T11:25:27;2.27;;;1.20;;
71655;SDS011;59497;48.798;8.816;2024-03-02T11:33:07;3.20;;;2.38;;
71655;SDS011;59497;48.798;8.816;2024-03-02T11:35:33;2.78;;;2.13;;
71655;SDS011;59497;48.798;8.816;2024-03-02T11:37:59;4.82;;;1.83;;
71655;SDS011;59497;48.798;8.816;2024-03-02T11:40:26;2.77;;;1.93;;
71655;SDS011;59497;48.798;8.816;2024-03-02T11:42:51;3.00;;;1.87;;
71655;SDS011;59497;48.798;8.816;2024-03-02T11:45:16;2.43;;;1.83;;
71655;SDS011;59497;48.798;8.816;2024-03-02T11:47:46;2.30;;;1.27;;
71655;SDS011;59497;48.798;8.816;2024-03-02T11:50:15;2.42;;;1.42;;
71655;SDS011;59497;48.798;8.816;2024-03-02T11:52:40;4.30;;;1.23;;
71655;SDS011;59497;48.798;8.816;2024-03-02T11:55:07;2.05;;;1.42;;
71655;SDS011;59497;48.798;8.816;2024-03-02T11:57:34;2.85;;;1.35;;
71655;SDS011;59497;48.798;8.816;2024-03-02T12:00:00;1.67;;;1.10;;
71655;SDS011;59497;48.798;8.816;2024-03-02T12:02:28;1.65;;;0.90;;
71655;SDS011;59497;48.798;8.816;2024-03-02T12:04:54;2.47;;;1.83;;
71655;SDS011;59497;48.798;8.816;2024-03-02T12:07:19;0.80;;;0.68;;
71655;SDS011;59497;48.798;8.816;2024-03-02T12:09:48;1.27;;;1.03;;
71655;SDS011;59497;48.798;8.816;2024-03-02T12:12:14;0.90;;;0.80;;
71655;SDS011;59497;48.798;8.816;2024-03-02T12:14:51;2.08;;;0.65;;
71655;SDS011;59497;48.798;8.816;2024-03-02T12:17:18;1.90;;;0.68;;
71655;SDS011;59497;48.798;8.816;2024-03-02T12:19:43;1.57;;;0.77;;
71655;SDS011;59497;48.798;8.816;2024-03-02T12:22:09;0.93;;;0.60;;
71655;SDS011;59497;48.798;8.816;2024-03-02T12:24:34;1.03;;;1.00;;
71655;SDS011;59497;48.798;8.816;2024-03-02T12:26:59;1.00;;;0.90;;
71655;SDS011;59497;48.798;8.816;2024-03-02T12:29:25;1.45;;;1.10;;
71655;SDS011;59497;48.798;8.816;2024-03-02T12:31:51;1.40;;;1.20;;
71655;SDS011;59497;48.798;8.816;2024-03-02T12:34:17;1.17;;;0.60;;
71655;SDS011;59497;48.798;8.816;2024-03-02T12:36:43;2.23;;;1.00;;
71655;SDS011;59497;48.798;8.816;2024-03-02T12:39:08;1.83;;;1.13;;
71655;SDS011;59497;48.798;8.816;2024-03-02T12:41:36;1.47;;;1.07;;
71655;SDS011;59497;48.798;8.816;2024-03-02T12:44:02;0.70;;;0.70;;
71655;SDS011;59497;48.798;8.816;2024-03-02T12:46:28;3.37;;;0.80;;
71655;SDS011;59497;48.798;8.816;2024-03-02T12:48:53;1.00;;;0.90;;
71655;SDS011;59497;48.798;8.816;2024-03-02T12:51:18;1.30;;;0.90;;
71655;SDS011;59497;48.798;8.816;2024-03-02T12:53:43;1.03;;;0.70;;
71655;SDS011;59497;48.798;8.816;2024-03-02T12:56:09;1.53;;;1.10;;
71655;SDS011;59497;48.798;8.816;2024-03-02T12:58:40;1.10;;;0.97;;
71655;SDS011;59497;48.798;8.816;2024-03-02T13:01:08;0.80;;;0.80;;
71655;SDS011;59497;48.798;8.816;2024-03-02T13:03:40;1.00;;;0.87;;
71655;SDS011;59497;48.798;8.816;2024-03-02T13:06:06;2.45;;;1.05;;
71655;SDS011;59497;48.798;8.816;2024-03-02T13:08:31;0.80;;;0.60;;
71655;SDS011;59497;48.798;8.816;2024-03-02T13:10:57;1.00;;;0.77;;
71655;SDS011;59497;48.798;8.816;2024-03-02T13:13:22;0.83;;;0.60;;
71655;SDS011;59497;48.798;8.816;2024-03-02T13:15:48;1.60;;;1.03;;
71655;SDS011;59497;48.798;8.816;2024-03-02T13:18:13;1.10;;;1.00;;
71655;SDS011;59497;48.798;8.816;2024-03-02T13:20:38;1.20;;;1.10;;
71655;SDS011;59497;48.798;8.816;2024-03-02T13:23:05;1.10;;;1.00;;
71655;SDS011;59497;48.798;8.816;2024-03-02T13:25:30;0.87;;;0.63;;
71655;SDS011;59497;48.798;8.816;2024-03-02T13:27:56;1.13;;;0.90;;
71655;SDS011;59497;48.798;8.816;2024-03-02T13:30:22;0.97;;;0.87;;
71655;SDS011;59497;48.798;8.816;2024-03-02T13:32:47;2.40;;;1.03;;
71655;SDS011;59497;48.798;8.816;2024-03-02T13:35:12;2.60;;;1.10;;
71655;SDS011;59497;48.798;8.816;2024-03-02T13:37:37;1.83;;;1.40;;
71655;SDS011;59497;48.798;8.816;2024-03-02T13:40:02;2.87;;;1.40;;
71655;SDS011;59497;48.798;8.816;2024-03-02T13:42:29;3.30;;;2.20;;
71655;SDS011;59497;48.798;8.816;2024-03-02T13:44:55;9.07;;;3.27;;
71655;SDS011;59497;48.798;8.816;2024-03-02T13:47:20;2.80;;;1.80;;
71655;SDS011;59497;48.798;8.816;2024-03-02T13:49:46;6.57;;;2.55;;
71655;SDS011;59497;48.798;8.816;2024-03-02T13:52:13;4.07;;;2.78;;
71655;SDS011;59497;48.798;8.816;2024-03-02T13:54:45;1.73;;;1.10;;
71655;SDS011;59497;48.798;8.816;2024-03-02T13:57:10;2.15;;;1.55;;
71655;SDS011;59497;48.798;8.816;2024-03-02T13:59:36;1.57;;;1.30;;
71655;SDS011;59497;48.798;8.816;2024-03-02T14:02:02;1.83;;;1.23;;
71655;SDS011;59497;48.798;8.816;2024-03-02T14:04:29;1.33;;;1.23;;
71655;SDS011;59497;48.798;8.816;2024-03-02T14:06:55;2.25;;;1.63;;
71655;SDS011;59497;48.798;8.816;2024-03-02T14:09:21;2.30;;;1.90;;
71655;SDS011;59497;48.798;8.816;2024-03-02T14:11:47;1.80;;;1.57;;
71655;SDS011;59497;48.798;8.816;2024-03-02T14:14:12;2.67;;;1.50;;
71655;SDS011;59497;48.798;8.816;2024-03-02T14:16:37;1.87;;;1.17;;
71655;SDS011;59497;48.798;8.816;2024-03-02T14:19:02;2.17;;;1.20;;
71655;SDS011;59497;48.798;8.816;2024-03-02T14:21:29;1.90;;;1.50;;
71655;SDS011;59497;48.798;8.816;2024-03-02T14:23:54;1.90;;;1.50;;
71655;SDS011;59497;48.798;8.816;2024-03-02T14:26:20;1.77;;;1.40;;
71655;SDS011;59497;48.798;8.816;2024-03-02T14:28:45;2.40;;;1.63;;
71655;SDS011;59497;48.798;8.816;2024-03-02T14:31:11;2.60;;;1.20;;
71655;SDS011;59497;48.798;8.816;2024-03-02T14:33:36;2.47;;;1.73;;
71655;SDS011;59497;48.798;8.816;2024-03-02T14:36:02;2.30;;;1.52;;
71655;SDS011;59497;48.798;8.816;2024-03-02T14:38:29;1.77;;;1.50;;
71655;SDS011;59497;48.798;8.816;2024-03-02T14:40:54;1.90;;;1.80;;
71655;SDS011;59497;48.798;8.816;2024-03-02T14:43:19;1.93;;;1.23;;
71655;SDS011;59497;48.798;8.816;2024-03-02T14:45:45;6.40;;;1.90;;